sensor_id;sensor_type;location;lat;lon;timestamp;P1;durP1;ratioP1;P2;durP2;ratioP2
9330;SDS011;4704;50.470;12.072;2022-09-20T00:01:32;0.90;;;0.55;;
9330;SDS011;4704;50.470;12.072;2022-09-20T00:04:00;0.80;;;0.50;;
9330;SDS011;4704;50.470;12.072;2022-09-20T00:06:29;0.68;;;0.60;;
9330;SDS011;4704;50.470;12.072;2022-09-20T00:08:57;1.10;;;0.50;;
9330;SDS011;4704;50.470;12.072;2022-09-20T00:11:27;0.75;;;0.50;;
9330;SDS011;4704;50.470;12.072;2022-09-20T00:13:57;1.73;;;0.57;;
9330;SDS011;4704;50.470;12.072;2022-09-20T00:16:25;0.57;;;0.50;;
9330;SDS011;4704;50.470;12.072;2022-09-20T00:18:54;1.05;;;0.50;;
9330;SDS011;4704;50.470;12.072;2022-09-20T00:21:22;0.80;;;0.52;;
9330;SDS011;4704;50.470;12.072;2022-09-20T00:23:50;0.93;;;0.50;;
9330;SDS011;4704;50.470;12.072;2022-09-20T00:26:18;0.73;;;0.50;;
9330;SDS011;4704;50.470;12.072;2022-09-20T00:28:46;0.60;;;0.50;;
9330;SDS011;4704;50.470;12.072;2022-09-20T00:31:14;0.85;;;0.50;;
9330;SDS011;4704;50.470;12.072;2022-09-20T00:33:42;0.68;;;0.50;;
9330;SDS011;4704;50.470;12.072;2022-09-20T00:36:27;1.60;;;0.50;;
9330;SDS011;4704;50.470;12.072;2022-09-20T00:38:55;0.40;;;0.35;;
9330;SDS011;4704;50.470;12.072;2022-09-20T00:41:23;1.00;;;0.52;;
9330;SDS011;4704;50.470;12.072;2022-09-20T00:43:51;0.80;;;0.50;;
9330;SDS011;4704;50.470;12.072;2022-09-20T00:46:21;0.68;;;0.60;;
9330;SDS011;4704;50.470;12.072;2022-09-20T00:48:50;0.80;;;0.43;;
9330;SDS011;4704;50.470;12.072;2022-09-20T00:51:19;0.60;;;0.60;;
9330;SDS011;4704;50.470;12.072;2022-09-20T00:53:48;0.52;;;0.50;;
9330;SDS011;4704;50.470;12.072;2022-09-20T00:56:18;0.50;;;0.40;;
9330;SDS011;4704;50.470;12.072;2022-09-20T00:58:48;0.93;;;0.50;;
9330;SDS011;4704;50.470;12.072;2022-09-20T01:01:17;0.60;;;0.50;;
9330;SDS011;4704;50.470;12.072;2022-09-20T01:03:46;0.60;;;0.50;;
9330;SDS011;4704;50.470;12.072;2022-09-20T01:06:15;0.47;;;0.40;;
9330;SDS011;4704;50.470;12.072;2022-09-20T01:08:44;0.70;;;0.60;;
9330;SDS011;4704;50.470;12.072;2022-09-20T01:11:12;0.60;;;0.40;;
9330;SDS011;4704;50.470;12.072;2022-09-20T01:13:40;1.27;;;0.40;;
9330;SDS011;4704;50.470;12.072;2022-09-20T01:16:08;0.50;;;0.40;;
9330;SDS011;4704;50.470;12.072;2022-09-20T01:18:37;0.60;;;0.45;;
9330;SDS011;4704;50.470;12.072;2022-09-20T01:21:07;0.77;;;0.40;;
9330;SDS011;4704;50.470;12.072;2022-09-20T01:23:42;0.70;;;0.50;;
9330;SDS011;4704;50.470;12.072;2022-09-20T01:29:05;0.40;;;0.40;;
9330;SDS011;4704;50.470;12.072;2022-09-20T01:31:36;0.65;;;0.40;;
9330;SDS011;4704;50.470;12.072;2022-09-20T01:34:08;0.88;;;0.57;;
9330;SDS011;4704;50.470;12.072;2022-09-20T01:36:38;0.73;;;0.43;;
9330;SDS011;4704;50.470;12.072;2022-09-20T01:39:10;0.50;;;0.40;;
9330;SDS011;4704;50.470;12.072;2022-09-20T01:41:39;0.50;;;0.40;;
9330;SDS011;4704;50.470;12.072;2022-09-20T01:44:11;0.93;;;0.50;;
9330;SDS011;4704;50.470;12.072;2022-09-20T01:46:40;0.30;;;0.30;;
9330;SDS011;4704;50.470;12.072;2022-09-20T01:49:12;0.73;;;0.45;;
9330;SDS011;4704;50.470;12.072;2022-09-20T01:51:57;0.40;;;0.30;;
9330;SDS011;4704;50.470;12.072;2022-09-20T01:54:40;0.40;;;0.40;;
9330;SDS011;4704;50.470;12.072;2022-09-20T01:57:25;0.70;;;0.30;;
9330;SDS011;4704;50.470;12.072;2022-09-20T02:00:03;0.73;;;0.50;;
9330;SDS011;4704;50.470;12.072;2022-09-20T02:02:35;0.52;;;0.40;;
9330;SDS011;4704;50.470;12.072;2022-09-20T02:05:12;0.63;;;0.40;;
9330;SDS011;4704;50.470;12.072;2022-09-20T02:10:30;0.40;;;0.40;;
9330;SDS011;4704;50.470;12.072;2022-09-20T02:13:02;0.45;;;0.45;;
9330;SDS011;4704;50.470;12.072;2022-09-20T02:15:37;0.55;;;0.38;;
9330;SDS011;4704;50.470;12.072;2022-09-20T02:18:08;0.68;;;0.30;;
9330;SDS011;4704;50.470;12.072;2022-09-20T02:20:39;0.43;;;0.43;;
9330;SDS011;4704;50.470;12.072;2022-09-20T02:23:15;0.40;;;0.35;;
9330;SDS011;4704;50.470;12.072;2022-09-20T02:25:48;0.40;;;0.30;;
9330;SDS011;4704;50.470;12.072;2022-09-20T02:28:22;0.35;;;0.30;;
9330;SDS011;4704;50.470;12.072;2022-09-20T02:30:55;0.50;;;0.47;;
9330;SDS011;4704;50.470;12.072;2022-09-20T02:33:33;0.60;;;0.47;;
9330;SDS011;4704;50.470;12.072;2022-09-20T02:36:11;0.30;;;0.30;;
9330;SDS011;4704;50.470;12.072;2022-09-20T02:38:43;0.47;;;0.35;;
9330;SDS011;4704;50.470;12.072;2022-09-20T02:41:18;0.70;;;0.50;;
9330;SDS011;4704;50.470;12.072;2022-09-20T02:43:50;0.52;;;0.30;;
9330;SDS011;4704;50.470;12.072;2022-09-20T02:46:22;0.32;;;0.30;;
9330;SDS011;4704;50.470;12.072;2022-09-20T02:48:53;0.52;;;0.43;;
9330;SDS011;4704;50.470;12.072;2022-09-20T02:51:23;0.45;;;0.40;;
9330;SDS011;4704;50.470;12.072;2022-09-20T02:53:54;0.30;;;0.30;;
9330;SDS011;4704;50.470;12.072;2022-09-20T02:56:26;0.50;;;0.40;;
9330;SDS011;4704;50.470;12.072;2022-09-20T02:58:58;0.40;;;0.20;;
9330;SDS011;4704;50.470;12.072;2022-09-20T03:01:31;0.43;;;0.35;;
9330;SDS011;4704;50.470;12.072;2022-09-20T03:04:09;0.40;;;0.30;;
9330;SDS011;4704;50.470;12.072;2022-09-20T03:06:39;0.45;;;0.45;;
9330;SDS011;4704;50.470;12.072;2022-09-20T03:09:11;0.65;;;0.50;;
9330;SDS011;4704;50.470;12.072;2022-09-20T03:11:42;0.35;;;0.30;;
9330;SDS011;4704;50.470;12.072;2022-09-20T03:14:15;0.60;;;0.30;;
9330;SDS011;4704;50.470;12.072;2022-09-20T03:16:50;0.50;;;0.40;;
9330;SDS011;4704;50.470;12.072;2022-09-20T03:19:24;0.30;;;0.30;;
9330;SDS011;4704;50.470;12.072;2022-09-20T03:21:58;0.30;;;0.30;;
9330;SDS011;4704;50.470;12.072;2022-09-20T03:24:36;0.57;;;0.40;;
9330;SDS011;4704;50.470;12.072;2022-09-20T03:27:06;1.23;;;0.30;;
9330;SDS011;4704;50.470;12.072;2022-09-20T03:29:44;0.30;;;0.30;;
9330;SDS011;4704;50.470;12.072;2022-09-20T03:32:23;0.30;;;0.30;;
9330;SDS011;4704;50.470;12.072;2022-09-20T03:34:56;0.30;;;0.30;;
9330;SDS011;4704;50.470;12.072;2022-09-20T03:37:37;0.40;;;0.30;;
9330;SDS011;4704;50.470;12.072;2022-09-20T03:40:17;1.15;;;0.40;;
9330;SDS011;4704;50.470;12.072;2022-09-20T03:42:48;0.25;;;0.20;;
9330;SDS011;4704;50.470;12.072;2022-09-20T03:45:34;0.70;;;0.50;;
9330;SDS011;4704;50.470;12.072;2022-09-20T03:48:19;0.50;;;0.43;;
9330;SDS011;4704;50.470;12.072;2022-09-20T03:50:55;0.47;;;0.32;;
9330;SDS011;4704;50.470;12.072;2022-09-20T04:01:35;0.40;;;0.30;;
9330;SDS011;4704;50.470;12.072;2022-09-20T04:04:10;0.63;;;0.20;;
9330;SDS011;4704;50.470;12.072;2022-09-20T04:07:01;0.60;;;0.32;;
9330;SDS011;4704;50.470;12.072;2022-09-20T04:09:45;0.55;;;0.55;;
9330;SDS011;4704;50.470;12.072;2022-09-20T04:12:19;1.23;;;0.35;;
9330;SDS011;4704;50.470;12.072;2022-09-20T04:14:49;0.45;;;0.40;;
9330;SDS011;4704;50.470;12.072;2022-09-20T04:17:26;0.35;;;0.30;;
9330;SDS011;4704;50.470;12.072;2022-09-20T04:20:00;0.50;;;0.40;;
9330;SDS011;4704;50.470;12.072;2022-09-20T04:22:28;0.63;;;0.40;;
9330;SDS011;4704;50.470;12.072;2022-09-20T04:24:59;0.50;;;0.30;;
9330;SDS011;4704;50.470;12.072;2022-09-20T04:27:28;0.32;;;0.30;;
9330;SDS011;4704;50.470;12.072;2022-09-20T04:29:57;0.55;;;0.38;;
9330;SDS011;4704;50.470;12.072;2022-09-20T04:32:27;0.98;;;0.43;;
9330;SDS011;4704;50.470;12.072;2022-09-20T04:35:01;0.95;;;0.47;;
9330;SDS011;4704;50.470;12.072;2022-09-20T04:37:47;0.35;;;0.30;;
9330;SDS011;4704;50.470;12.072;2022-09-20T04:40:19;0.77;;;0.30;;
9330;SDS011;4704;50.470;12.072;2022-09-20T04:45:45;0.40;;;0.40;;
9330;SDS011;4704;50.470;12.072;2022-09-20T04:56:48;0.40;;;0.40;;
9330;SDS011;4704;50.470;12.072;2022-09-20T04:59:25;0.70;;;0.50;;
9330;SDS011;4704;50.470;12.072;2022-09-20T05:02:06;0.30;;;0.30;;
9330;SDS011;4704;50.470;12.072;2022-09-20T05:10:15;0.40;;;0.30;;
9330;SDS011;4704;50.470;12.072;2022-09-20T05:12:54;0.43;;;0.30;;
9330;SDS011;4704;50.470;12.072;2022-09-20T05:15:38;0.50;;;0.50;;
9330;SDS011;4704;50.470;12.072;2022-09-20T05:18:12;0.35;;;0.30;;
9330;SDS011;4704;50.470;12.072;2022-09-20T05:20:42;0.50;;;0.40;;
9330;SDS011;4704;50.470;12.072;2022-09-20T05:26:07;0.93;;;0.30;;
9330;SDS011;4704;50.470;12.072;2022-09-20T05:28:39;0.38;;;0.30;;
9330;SDS011;4704;50.470;12.072;2022-09-20T05:31:12;0.88;;;0.45;;
9330;SDS011;4704;50.470;12.072;2022-09-20T05:33:42;1.05;;;0.40;;
9330;SDS011;4704;50.470;12.072;2022-09-20T05:36:15;0.60;;;0.30;;
9330;SDS011;4704;50.470;12.072;2022-09-20T05:38:45;0.45;;;0.45;;
9330;SDS011;4704;50.470;12.072;2022-09-20T05:41:17;0.60;;;0.40;;
9330;SDS011;4704;50.470;12.072;2022-09-20T05:43:55;0.75;;;0.52;;
9330;SDS011;4704;50.470;12.072;2022-09-20T05:46:31;1.33;;;0.65;;
9330;SDS011;4704;50.470;12.072;2022-09-20T05:49:03;1.45;;;0.88;;
9330;SDS011;4704;50.470;12.072;2022-09-20T05:51:41;2.58;;;1.25;;
9330;SDS011;4704;50.470;12.072;2022-09-20T05:54:23;2.97;;;1.13;;
9330;SDS011;4704;50.470;12.072;2022-09-20T05:56:54;2.95;;;1.30;;
9330;SDS011;4704;50.470;12.072;2022-09-20T05:59:33;1.83;;;1.05;;
9330;SDS011;4704;50.470;12.072;2022-09-20T06:02:13;3.03;;;1.30;;
9330;SDS011;4704;50.470;12.072;2022-09-20T06:04:44;2.58;;;1.30;;
9330;SDS011;4704;50.470;12.072;2022-09-20T06:07:17;4.00;;;1.30;;
9330;SDS011;4704;50.470;12.072;2022-09-20T06:10:04;2.50;;;1.50;;
9330;SDS011;4704;50.470;12.072;2022-09-20T06:12:42;4.63;;;1.77;;
9330;SDS011;4704;50.470;12.072;2022-09-20T06:15:17;3.90;;;1.50;;
9330;SDS011;4704;50.470;12.072;2022-09-20T06:17:48;5.45;;;2.10;;
9330;SDS011;4704;50.470;12.072;2022-09-20T06:20:22;4.47;;;1.80;;
9330;SDS011;4704;50.470;12.072;2022-09-20T06:22:52;3.80;;;1.83;;
9330;SDS011;4704;50.470;12.072;2022-09-20T06:25:22;4.38;;;2.00;;
9330;SDS011;4704;50.470;12.072;2022-09-20T06:27:51;4.93;;;2.47;;
9330;SDS011;4704;50.470;12.072;2022-09-20T06:30:21;4.78;;;2.28;;
9330;SDS011;4704;50.470;12.072;2022-09-20T06:32:54;5.80;;;2.13;;
9330;SDS011;4704;50.470;12.072;2022-09-20T06:35:21;6.57;;;2.22;;
9330;SDS011;4704;50.470;12.072;2022-09-20T06:37:51;4.30;;;2.05;;
9330;SDS011;4704;50.470;12.072;2022-09-20T06:40:38;4.57;;;1.90;;
9330;SDS011;4704;50.470;12.072;2022-09-20T06:43:23;5.03;;;1.92;;
9330;SDS011;4704;50.470;12.072;2022-09-20T06:45:53;5.18;;;2.00;;
9330;SDS011;4704;50.470;12.072;2022-09-20T06:48:20;4.05;;;2.17;;
9330;SDS011;4704;50.470;12.072;2022-09-20T06:50:49;4.05;;;1.90;;
9330;SDS011;4704;50.470;12.072;2022-09-20T06:53:17;4.15;;;2.00;;
9330;SDS011;4704;50.470;12.072;2022-09-20T06:55:45;5.68;;;2.25;;
9330;SDS011;4704;50.470;12.072;2022-09-20T06:58:13;3.63;;;1.95;;
9330;SDS011;4704;50.470;12.072;2022-09-20T07:00:40;4.20;;;2.05;;
9330;SDS011;4704;50.470;12.072;2022-09-20T07:03:09;4.22;;;2.10;;
9330;SDS011;4704;50.470;12.072;2022-09-20T07:05:38;5.18;;;2.20;;
9330;SDS011;4704;50.470;12.072;2022-09-20T07:08:05;3.10;;;2.03;;
9330;SDS011;4704;50.470;12.072;2022-09-20T07:10:33;4.47;;;1.95;;
9330;SDS011;4704;50.470;12.072;2022-09-20T07:13:01;4.38;;;2.00;;
9330;SDS011;4704;50.470;12.072;2022-09-20T07:15:30;4.25;;;2.20;;
9330;SDS011;4704;50.470;12.072;2022-09-20T07:17:57;3.75;;;1.98;;
9330;SDS011;4704;50.470;12.072;2022-09-20T07:20:26;4.47;;;2.10;;
9330;SDS011;4704;50.470;12.072;2022-09-20T07:22:54;3.70;;;2.03;;
9330;SDS011;4704;50.470;12.072;2022-09-20T07:25:21;3.00;;;1.85;;
9330;SDS011;4704;50.470;12.072;2022-09-20T07:27:49;4.97;;;2.08;;
9330;SDS011;4704;50.470;12.072;2022-09-20T07:30:17;4.15;;;1.98;;
9330;SDS011;4704;50.470;12.072;2022-09-20T07:32:45;3.75;;;1.95;;
9330;SDS011;4704;50.470;12.072;2022-09-20T07:35:13;2.95;;;1.80;;
9330;SDS011;4704;50.470;12.072;2022-09-20T07:37:42;3.50;;;1.83;;
9330;SDS011;4704;50.470;12.072;2022-09-20T07:40:10;3.47;;;1.70;;
9330;SDS011;4704;50.470;12.072;2022-09-20T07:42:38;2.90;;;1.92;;
9330;SDS011;4704;50.470;12.072;2022-09-20T07:45:06;3.85;;;1.88;;
9330;SDS011;4704;50.470;12.072;2022-09-20T07:47:34;3.58;;;1.77;;
9330;SDS011;4704;50.470;12.072;2022-09-20T07:50:05;4.22;;;1.70;;
9330;SDS011;4704;50.470;12.072;2022-09-20T07:52:34;4.55;;;1.83;;
9330;SDS011;4704;50.470;12.072;2022-09-20T07:55:03;3.83;;;2.00;;
9330;SDS011;4704;50.470;12.072;2022-09-20T07:57:33;3.28;;;1.80;;
9330;SDS011;4704;50.470;12.072;2022-09-20T08:00:02;3.45;;;1.58;;
9330;SDS011;4704;50.470;12.072;2022-09-20T08:02:32;2.92;;;1.77;;
9330;SDS011;4704;50.470;12.072;2022-09-20T08:05:00;4.65;;;2.03;;
9330;SDS011;4704;50.470;12.072;2022-09-20T08:07:29;3.92;;;1.90;;
9330;SDS011;4704;50.470;12.072;2022-09-20T08:09:56;3.20;;;1.98;;
9330;SDS011;4704;50.470;12.072;2022-09-20T08:12:25;3.70;;;2.00;;
9330;SDS011;4704;50.470;12.072;2022-09-20T08:14:53;3.25;;;1.60;;
9330;SDS011;4704;50.470;12.072;2022-09-20T08:17:21;3.08;;;1.52;;
9330;SDS011;4704;50.470;12.072;2022-09-20T08:19:48;2.83;;;1.60;;
9330;SDS011;4704;50.470;12.072;2022-09-20T08:22:17;2.72;;;1.63;;
9330;SDS011;4704;50.470;12.072;2022-09-20T08:24:46;2.67;;;1.60;;
9330;SDS011;4704;50.470;12.072;2022-09-20T08:27:13;2.35;;;1.58;;
9330;SDS011;4704;50.470;12.072;2022-09-20T08:29:42;2.35;;;1.42;;
9330;SDS011;4704;50.470;12.072;2022-09-20T08:32:10;2.55;;;1.52;;
9330;SDS011;4704;50.470;12.072;2022-09-20T08:34:37;3.15;;;1.63;;
9330;SDS011;4704;50.470;12.072;2022-09-20T08:37:05;3.10;;;1.52;;
9330;SDS011;4704;50.470;12.072;2022-09-20T08:39:32;2.40;;;1.70;;
9330;SDS011;4704;50.470;12.072;2022-09-20T08:42:03;2.53;;;1.45;;
9330;SDS011;4704;50.470;12.072;2022-09-20T08:44:39;2.13;;;1.50;;
9330;SDS011;4704;50.470;12.072;2022-09-20T08:47:12;2.92;;;1.38;;
9330;SDS011;4704;50.470;12.072;2022-09-20T08:49:41;3.78;;;1.50;;
9330;SDS011;4704;50.470;12.072;2022-09-20T08:52:09;2.80;;;1.55;;
9330;SDS011;4704;50.470;12.072;2022-09-20T08:54:41;2.47;;;1.65;;
9330;SDS011;4704;50.470;12.072;2022-09-20T08:57:09;1.73;;;1.30;;
9330;SDS011;4704;50.470;12.072;2022-09-20T08:59:38;2.92;;;1.60;;
9330;SDS011;4704;50.470;12.072;2022-09-20T09:02:08;2.90;;;1.40;;
9330;SDS011;4704;50.470;12.072;2022-09-20T09:04:42;1.88;;;1.27;;
9330;SDS011;4704;50.470;12.072;2022-09-20T09:07:10;2.42;;;1.33;;
9330;SDS011;4704;50.470;12.072;2022-09-20T09:09:39;1.63;;;1.35;;
9330;SDS011;4704;50.470;12.072;2022-09-20T09:12:13;2.42;;;1.38;;
9330;SDS011;4704;50.470;12.072;2022-09-20T09:14:42;2.90;;;1.40;;
9330;SDS011;4704;50.470;12.072;2022-09-20T09:17:20;1.88;;;1.30;;
9330;SDS011;4704;50.470;12.072;2022-09-20T09:19:49;2.65;;;1.42;;
9330;SDS011;4704;50.470;12.072;2022-09-20T09:22:18;1.70;;;0.98;;
9330;SDS011;4704;50.470;12.072;2022-09-20T09:24:47;1.95;;;1.20;;
9330;SDS011;4704;50.470;12.072;2022-09-20T09:27:32;3.53;;;1.63;;
9330;SDS011;4704;50.470;12.072;2022-09-20T09:29:59;1.60;;;1.20;;
9330;SDS011;4704;50.470;12.072;2022-09-20T09:32:28;1.63;;;1.20;;
9330;SDS011;4704;50.470;12.072;2022-09-20T09:35:15;2.40;;;1.40;;
9330;SDS011;4704;50.470;12.072;2022-09-20T09:37:51;1.55;;;1.23;;
9330;SDS011;4704;50.470;12.072;2022-09-20T09:40:19;3.20;;;1.45;;
9330;SDS011;4704;50.470;12.072;2022-09-20T09:42:49;1.63;;;1.10;;
9330;SDS011;4704;50.470;12.072;2022-09-20T09:45:29;1.52;;;1.10;;
9330;SDS011;4704;50.470;12.072;2022-09-20T09:47:59;2.20;;;1.08;;
9330;SDS011;4704;50.470;12.072;2022-09-20T09:50:29;2.13;;;1.30;;
9330;SDS011;4704;50.470;12.072;2022-09-20T09:52:58;2.08;;;1.20;;
9330;SDS011;4704;50.470;12.072;2022-09-20T09:55:27;2.20;;;1.20;;
9330;SDS011;4704;50.470;12.072;2022-09-20T09:57:57;1.92;;;1.23;;
9330;SDS011;4704;50.470;12.072;2022-09-20T10:00:27;1.90;;;1.02;;
9330;SDS011;4704;50.470;12.072;2022-09-20T10:03:09;2.72;;;1.35;;
9330;SDS011;4704;50.470;12.072;2022-09-20T10:05:43;1.65;;;1.23;;
9330;SDS011;4704;50.470;12.072;2022-09-20T10:08:16;2.28;;;1.23;;
9330;SDS011;4704;50.470;12.072;2022-09-20T10:10:51;1.92;;;1.13;;
9330;SDS011;4704;50.470;12.072;2022-09-20T10:13:23;1.45;;;0.95;;
9330;SDS011;4704;50.470;12.072;2022-09-20T10:15:54;1.48;;;1.10;;
9330;SDS011;4704;50.470;12.072;2022-09-20T10:18:25;2.70;;;0.90;;
9330;SDS011;4704;50.470;12.072;2022-09-20T10:21:02;2.22;;;1.13;;
9330;SDS011;4704;50.470;12.072;2022-09-20T10:23:41;2.15;;;1.23;;
9330;SDS011;4704;50.470;12.072;2022-09-20T10:26:11;2.28;;;1.15;;
9330;SDS011;4704;50.470;12.072;2022-09-20T10:28:47;3.30;;;1.42;;
9330;SDS011;4704;50.470;12.072;2022-09-20T10:31:19;1.60;;;1.00;;
9330;SDS011;4704;50.470;12.072;2022-09-20T10:33:53;2.08;;;1.30;;
9330;SDS011;4704;50.470;12.072;2022-09-20T10:36:28;3.67;;;1.50;;
9330;SDS011;4704;50.470;12.072;2022-09-20T10:39:02;2.63;;;1.15;;
9330;SDS011;4704;50.470;12.072;2022-09-20T10:41:35;2.90;;;1.23;;
9330;SDS011;4704;50.470;12.072;2022-09-20T10:44:39;2.60;;;1.30;;
9330;SDS011;4704;50.470;12.072;2022-09-20T10:47:11;1.73;;;0.88;;
9330;SDS011;4704;50.470;12.072;2022-09-20T10:49:41;1.92;;;1.10;;
9330;SDS011;4704;50.470;12.072;2022-09-20T10:57:42;2.00;;;1.20;;
9330;SDS011;4704;50.470;12.072;2022-09-20T11:00:18;2.22;;;1.27;;
9330;SDS011;4704;50.470;12.072;2022-09-20T11:02:50;2.13;;;1.30;;
9330;SDS011;4704;50.470;12.072;2022-09-20T11:05:32;1.83;;;1.02;;
9330;SDS011;4704;50.470;12.072;2022-09-20T11:08:05;1.63;;;1.20;;
9330;SDS011;4704;50.470;12.072;2022-09-20T11:10:37;2.30;;;1.10;;
9330;SDS011;4704;50.470;12.072;2022-09-20T11:13:09;2.50;;;1.10;;
9330;SDS011;4704;50.470;12.072;2022-09-20T11:15:40;1.77;;;1.10;;
9330;SDS011;4704;50.470;12.072;2022-09-20T11:18:12;1.80;;;1.20;;
9330;SDS011;4704;50.470;12.072;2022-09-20T11:20:46;2.00;;;1.20;;
9330;SDS011;4704;50.470;12.072;2022-09-20T11:23:17;2.13;;;1.20;;
9330;SDS011;4704;50.470;12.072;2022-09-20T11:25:47;2.30;;;1.30;;
9330;SDS011;4704;50.470;12.072;2022-09-20T11:28:18;1.90;;;1.20;;
9330;SDS011;4704;50.470;12.072;2022-09-20T11:30:52;1.55;;;1.10;;
9330;SDS011;4704;50.470;12.072;2022-09-20T11:33:23;2.30;;;1.25;;
9330;SDS011;4704;50.470;12.072;2022-09-20T11:35:52;1.27;;;1.00;;
9330;SDS011;4704;50.470;12.072;2022-09-20T11:38:21;1.50;;;1.13;;
9330;SDS011;4704;50.470;12.072;2022-09-20T11:40:52;1.58;;;1.10;;
9330;SDS011;4704;50.470;12.072;2022-09-20T11:43:23;1.63;;;1.17;;
9330;SDS011;4704;50.470;12.072;2022-09-20T11:45:57;1.48;;;1.15;;
9330;SDS011;4704;50.470;12.072;2022-09-20T11:48:27;1.48;;;1.10;;
9330;SDS011;4704;50.470;12.072;2022-09-20T11:51:11;1.83;;;1.17;;
9330;SDS011;4704;50.470;12.072;2022-09-20T11:53:43;1.58;;;1.10;;
9330;SDS011;4704;50.470;12.072;2022-09-20T11:56:16;1.70;;;1.20;;
9330;SDS011;4704;50.470;12.072;2022-09-20T11:58:47;1.80;;;1.20;;
9330;SDS011;4704;50.470;12.072;2022-09-20T12:01:15;1.40;;;1.02;;
9330;SDS011;4704;50.470;12.072;2022-09-20T12:03:44;2.20;;;1.23;;
9330;SDS011;4704;50.470;12.072;2022-09-20T12:06:22;1.45;;;1.13;;
9330;SDS011;4704;50.470;12.072;2022-09-20T12:08:51;1.73;;;1.02;;
9330;SDS011;4704;50.470;12.072;2022-09-20T12:11:25;1.73;;;1.20;;
9330;SDS011;4704;50.470;12.072;2022-09-20T12:13:56;1.42;;;1.10;;
9330;SDS011;4704;50.470;12.072;2022-09-20T12:16:36;1.10;;;1.00;;
9330;SDS011;4704;50.470;12.072;2022-09-20T12:19:04;1.92;;;1.00;;
9330;SDS011;4704;50.470;12.072;2022-09-20T12:24:21;1.77;;;1.13;;
9330;SDS011;4704;50.470;12.072;2022-09-20T12:26:49;1.40;;;1.10;;
9330;SDS011;4704;50.470;12.072;2022-09-20T12:34:56;1.13;;;0.95;;
9330;SDS011;4704;50.470;12.072;2022-09-20T12:37:23;1.30;;;0.90;;
9330;SDS011;4704;50.470;12.072;2022-09-20T12:39:52;1.15;;;0.95;;
9330;SDS011;4704;50.470;12.072;2022-09-20T12:42:26;1.40;;;0.95;;
9330;SDS011;4704;50.470;12.072;2022-09-20T12:44:57;2.08;;;1.23;;
9330;SDS011;4704;50.470;12.072;2022-09-20T12:47:25;1.67;;;1.10;;
9330;SDS011;4704;50.470;12.072;2022-09-20T12:49:53;0.85;;;0.73;;
9330;SDS011;4704;50.470;12.072;2022-09-20T12:52:53;1.42;;;1.00;;
9330;SDS011;4704;50.470;12.072;2022-09-20T12:58:20;1.73;;;0.98;;
9330;SDS011;4704;50.470;12.072;2022-09-20T13:00:49;2.80;;;1.00;;
9330;SDS011;4704;50.470;12.072;2022-09-20T13:03:25;1.30;;;1.00;;
9330;SDS011;4704;50.470;12.072;2022-09-20T13:08:40;2.03;;;0.95;;
9330;SDS011;4704;50.470;12.072;2022-09-20T13:11:12;2.20;;;0.95;;
9330;SDS011;4704;50.470;12.072;2022-09-20T13:13:42;1.38;;;0.85;;
9330;SDS011;4704;50.470;12.072;2022-09-20T13:16:15;1.90;;;1.10;;
9330;SDS011;4704;50.470;12.072;2022-09-20T13:18:46;1.73;;;1.10;;
9330;SDS011;4704;50.470;12.072;2022-09-20T13:21:16;2.15;;;1.10;;
9330;SDS011;4704;50.470;12.072;2022-09-20T13:23:47;1.15;;;0.85;;
9330;SDS011;4704;50.470;12.072;2022-09-20T13:26:17;1.30;;;0.90;;
9330;SDS011;4704;50.470;12.072;2022-09-20T13:28:48;1.15;;;0.88;;
9330;SDS011;4704;50.470;12.072;2022-09-20T13:31:23;1.90;;;0.80;;
9330;SDS011;4704;50.470;12.072;2022-09-20T13:33:51;1.67;;;1.00;;
9330;SDS011;4704;50.470;12.072;2022-09-20T13:36:22;1.42;;;0.80;;
9330;SDS011;4704;50.470;12.072;2022-09-20T13:38:52;1.17;;;0.80;;
9330;SDS011;4704;50.470;12.072;2022-09-20T13:41:20;2.72;;;0.90;;
9330;SDS011;4704;50.470;12.072;2022-09-20T13:43:47;1.23;;;0.90;;
9330;SDS011;4704;50.470;12.072;2022-09-20T13:46:17;1.10;;;0.75;;
9330;SDS011;4704;50.470;12.072;2022-09-20T13:48:49;0.85;;;0.60;;
9330;SDS011;4704;50.470;12.072;2022-09-20T13:51:19;1.17;;;0.80;;
9330;SDS011;4704;50.470;12.072;2022-09-20T13:53:49;1.17;;;0.80;;
9330;SDS011;4704;50.470;12.072;2022-09-20T13:56:19;0.60;;;0.57;;
9330;SDS011;4704;50.470;12.072;2022-09-20T13:58:47;1.50;;;0.80;;
9330;SDS011;4704;50.470;12.072;2022-09-20T14:01:22;1.77;;;1.00;;
9330;SDS011;4704;50.470;12.072;2022-09-20T14:03:52;0.82;;;0.60;;
9330;SDS011;4704;50.470;12.072;2022-09-20T14:06:22;1.65;;;0.80;;
9330;SDS011;4704;50.470;12.072;2022-09-20T14:08:52;0.70;;;0.60;;
9330;SDS011;4704;50.470;12.072;2022-09-20T14:11:24;0.90;;;0.60;;
9330;SDS011;4704;50.470;12.072;2022-09-20T14:13:53;1.00;;;0.70;;
9330;SDS011;4704;50.470;12.072;2022-09-20T14:16:23;1.15;;;0.60;;
9330;SDS011;4704;50.470;12.072;2022-09-20T14:18:58;1.10;;;0.75;;
9330;SDS011;4704;50.470;12.072;2022-09-20T14:21:31;1.17;;;0.63;;
9330;SDS011;4704;50.470;12.072;2022-09-20T14:24:02;0.90;;;0.70;;
9330;SDS011;4704;50.470;12.072;2022-09-20T14:26:36;1.42;;;0.70;;
9330;SDS011;4704;50.470;12.072;2022-09-20T14:31:46;1.38;;;0.80;;
9330;SDS011;4704;50.470;12.072;2022-09-20T14:34:14;1.40;;;0.90;;
9330;SDS011;4704;50.470;12.072;2022-09-20T14:36:42;0.80;;;0.55;;
9330;SDS011;4704;50.470;12.072;2022-09-20T14:39:12;0.93;;;0.75;;
9330;SDS011;4704;50.470;12.072;2022-09-20T14:41:42;0.90;;;0.77;;
9330;SDS011;4704;50.470;12.072;2022-09-20T14:44:16;1.55;;;0.98;;
9330;SDS011;4704;50.470;12.072;2022-09-20T14:46:46;0.98;;;0.60;;
9330;SDS011;4704;50.470;12.072;2022-09-20T14:49:18;1.35;;;0.60;;
9330;SDS011;4704;50.470;12.072;2022-09-20T14:51:46;0.80;;;0.68;;
9330;SDS011;4704;50.470;12.072;2022-09-20T14:54:23;1.55;;;0.85;;
9330;SDS011;4704;50.470;12.072;2022-09-20T14:56:53;1.02;;;0.77;;
9330;SDS011;4704;50.470;12.072;2022-09-20T14:59:23;0.63;;;0.60;;
9330;SDS011;4704;50.470;12.072;2022-09-20T15:01:59;1.00;;;0.68;;
9330;SDS011;4704;50.470;12.072;2022-09-20T15:04:27;1.15;;;0.90;;
9330;SDS011;4704;50.470;12.072;2022-09-20T15:07:00;0.95;;;0.75;;
9330;SDS011;4704;50.470;12.072;2022-09-20T15:09:28;0.88;;;0.70;;
9330;SDS011;4704;50.470;12.072;2022-09-20T15:12:03;0.77;;;0.70;;
9330;SDS011;4704;50.470;12.072;2022-09-20T15:14:32;1.05;;;0.60;;
9330;SDS011;4704;50.470;12.072;2022-09-20T15:17:00;1.70;;;0.77;;
9330;SDS011;4704;50.470;12.072;2022-09-20T15:19:27;1.60;;;0.70;;
9330;SDS011;4704;50.470;12.072;2022-09-20T15:21:58;1.42;;;0.90;;
9330;SDS011;4704;50.470;12.072;2022-09-20T15:24:26;1.50;;;0.73;;
9330;SDS011;4704;50.470;12.072;2022-09-20T15:26:58;0.90;;;0.68;;
9330;SDS011;4704;50.470;12.072;2022-09-20T15:29:27;2.08;;;0.80;;
9330;SDS011;4704;50.470;12.072;2022-09-20T15:31:54;1.27;;;0.73;;
9330;SDS011;4704;50.470;12.072;2022-09-20T15:34:22;1.60;;;0.90;;
9330;SDS011;4704;50.470;12.072;2022-09-20T15:36:49;1.33;;;0.75;;
9330;SDS011;4704;50.470;12.072;2022-09-20T15:39:18;2.05;;;0.88;;
9330;SDS011;4704;50.470;12.072;2022-09-20T15:41:46;1.52;;;0.70;;
9330;SDS011;4704;50.470;12.072;2022-09-20T15:44:14;1.25;;;0.82;;
9330;SDS011;4704;50.470;12.072;2022-09-20T15:46:43;2.00;;;1.10;;
9330;SDS011;4704;50.470;12.072;2022-09-20T15:49:12;2.35;;;1.20;;
9330;SDS011;4704;50.470;12.072;2022-09-20T15:51:39;1.77;;;0.82;;
9330;SDS011;4704;50.470;12.072;2022-09-20T15:54:09;2.05;;;1.00;;
9330;SDS011;4704;50.470;12.072;2022-09-20T15:56:38;2.20;;;1.08;;
9330;SDS011;4704;50.470;12.072;2022-09-20T15:59:06;2.05;;;1.00;;
9330;SDS011;4704;50.470;12.072;2022-09-20T16:01:35;2.30;;;0.90;;
9330;SDS011;4704;50.470;12.072;2022-09-20T16:04:05;1.48;;;0.80;;
9330;SDS011;4704;50.470;12.072;2022-09-20T16:06:34;2.13;;;1.00;;
9330;SDS011;4704;50.470;12.072;2022-09-20T16:09:02;2.40;;;1.00;;
9330;SDS011;4704;50.470;12.072;2022-09-20T16:11:29;2.80;;;0.90;;
9330;SDS011;4704;50.470;12.072;2022-09-20T16:13:59;1.45;;;1.00;;
9330;SDS011;4704;50.470;12.072;2022-09-20T16:16:28;2.05;;;1.27;;
9330;SDS011;4704;50.470;12.072;2022-09-20T16:18:57;2.15;;;0.95;;
9330;SDS011;4704;50.470;12.072;2022-09-20T16:21:47;2.70;;;1.00;;
9330;SDS011;4704;50.470;12.072;2022-09-20T16:24:16;11.43;;;8.25;;